Time;durP1;ratioP1;P1;durP2;ratioP2;P2;SDS_P1;SDS_P2;PMS_P1;PMS_P2;Temp;Humidity;BMP_temperature;BMP_pressure;BME280_temperature;BME280_humidity;BME280_pressure;Samples;Min_cycle;Max_cycle;Signal;HPM_P1;HPM_P2
2022/03/26 00:02:08;;;;;;;28.60;25.87;;;5.90;12.20;;;;;;5030518;28;20187;-68
2022/03/26 00:04:34;;;;;;;29.50;26.27;;;6.00;12.30;;;;;;5015098;28;20183;-69
2022/03/26 00:06:59;;;;;;;29.60;26.27;;;5.90;12.20;;;;;;5014995;28;20196;-69
2022/03/26 00:09:25;;;;;;;30.47;26.27;;;5.80;12.10;;;;;;5015034;28;20199;-69
2022/03/26 00:11:51;;;;;;;31.03;27.97;;;5.80;12.60;;;;;;5030422;28;20168;-68
2022/03/26 00:14:16;;;;;;;30.03;26.57;;;5.70;12.40;;;;;;5030259;28;20223;-68
2022/03/26 00:16:42;;;;;;;32.33;27.00;;;5.60;13.20;;;;;;5014362;28;20594;-68
2022/03/26 00:19:07;;;;;;;33.43;28.40;;;5.60;13.30;;;;;;5029902;28;20180;-69
2022/03/26 00:21:33;;;;;;;41.13;26.50;;;5.60;13.20;;;;;;5014774;28;20598;-67
2022/03/26 00:23:59;;;;;;;28.30;25.30;;;5.70;13.10;;;;;;5015137;28;20361;-67
2022/03/26 00:26:24;;;;;;;30.13;26.83;;;5.60;13.20;;;;;;5014418;28;20586;-67
2022/03/26 00:28:50;;;;;;;31.63;27.60;;;5.60;13.20;;;;;;5013113;28;20250;-68
2022/03/26 00:31:15;;;;;;;30.10;26.67;;;5.50;13.40;;;;;;5014488;28;20176;-69
2022/03/26 00:33:42;;;;;;;32.33;27.50;;;5.50;13.40;;;;;;5029497;28;20235;-68
2022/03/26 00:36:08;;;;;;;29.48;24.80;;;5.40;13.50;;;;;;5032906;28;20436;-67
2022/03/26 00:38:34;;;;;;;33.67;26.67;;;5.40;13.60;;;;;;5033781;28;20581;-67
2022/03/26 00:41:00;;;;;;;32.80;26.13;;;5.40;13.40;;;;;;5034155;28;20217;-68
2022/03/26 00:43:25;;;;;;;30.73;26.70;;;5.30;13.90;;;;;;5033964;28;20262;-68
2022/03/26 00:45:51;;;;;;;30.63;27.17;;;5.30;14.00;;;;;;5034084;28;20556;-67
2022/03/26 00:48:17;;;;;;;27.57;24.60;;;5.20;13.90;;;;;;5033635;28;20754;-67
2022/03/26 00:50:42;;;;;;;31.73;26.70;;;5.10;14.40;;;;;;5033899;28;20899;-68
2022/03/26 00:53:08;;;;;;;29.33;24.63;;;5.00;14.80;;;;;;5033816;28;20183;-68
2022/03/26 00:55:34;;;;;;;31.33;26.27;;;5.00;14.60;;;;;;5033829;28;20337;-67
2022/03/26 00:58:00;;;;;;;26.80;23.15;;;4.90;15.00;;;;;;5033440;28;20195;-67
2022/03/26 01:00:27;;;;;;;28.70;25.70;;;5.00;15.10;;;;;;5033743;28;20641;-67
2022/03/26 01:02:52;;;;;;;31.95;25.80;;;5.00;14.80;;;;;;5033149;28;20575;-68
2022/03/26 01:05:18;;;;;;;29.00;26.13;;;4.90;15.00;;;;;;5032977;28;20629;-67
2022/03/26 01:07:43;;;;;;;29.60;24.90;;;4.90;14.80;;;;;;5048333;28;20788;-68
2022/03/26 01:10:09;;;;;;;33.03;24.80;;;5.00;15.00;;;;;;5033813;28;20858;-68
2022/03/26 01:12:35;;;;;;;30.73;25.30;;;5.00;15.20;;;;;;5033512;28;20182;-68
2022/03/26 01:15:01;;;;;;;29.17;25.30;;;4.90;15.00;;;;;;5033497;28;20179;-68
2022/03/26 01:17:26;;;;;;;27.83;25.02;;;4.90;15.20;;;;;;5032889;28;20253;-68
2022/03/26 01:19:52;;;;;;;32.87;28.10;;;4.90;15.00;;;;;;5032029;28;20179;-67
2022/03/26 01:22:18;;;;;;;27.33;24.17;;;4.80;15.30;;;;;;5033261;28;20229;-67
2022/03/26 01:24:43;;;;;;;32.10;27.77;;;4.80;15.10;;;;;;5033416;28;20171;-67
2022/03/26 01:27:09;;;;;;;30.70;24.63;;;4.80;15.00;;;;;;5032886;28;20538;-68
2022/03/26 01:29:38;;;;;;;27.67;23.80;;;4.80;15.10;;;;;;5033138;28;20215;-68
2022/03/26 01:32:07;;;;;;;34.97;27.73;;;4.80;15.40;;;;;;5033390;28;20659;-68
2022/03/26 01:34:33;;;;;;;37.10;25.00;;;4.80;15.30;;;;;;5032971;28;20182;-67
2022/03/26 01:36:58;;;;;;;37.80;27.27;;;4.70;15.70;;;;;;5031295;28;20291;-67
2022/03/26 01:39:24;;;;;;;30.77;23.27;;;4.60;15.60;;;;;;5032962;28;20256;-67
2022/03/26 01:41:50;;;;;;;29.23;25.63;;;4.60;15.60;;;;;;5032870;28;20175;-68
2022/03/26 01:44:15;;;;;;;29.57;23.20;;;4.60;15.60;;;;;;5032884;28;20186;-68
2022/03/26 01:46:46;;;;;;;29.53;23.93;;;4.60;15.60;;;;;;5032679;28;20677;-67
2022/03/26 01:49:11;;;;;;;28.83;23.95;;;4.60;15.60;;;;;;5032676;28;20578;-69
2022/03/26 01:51:37;;;;;;;30.30;25.90;;;4.60;15.60;;;;;;5032593;28;20175;-67
2022/03/26 01:54:02;;;;;;;29.23;24.30;;;4.50;15.60;;;;;;5032766;28;20265;-67
2022/03/26 01:56:28;;;;;;;31.73;23.70;;;4.50;15.90;;;;;;5047649;28;20202;-67
2022/03/26 01:58:54;;;;;;;30.37;25.63;;;4.40;15.60;;;;;;5032526;28;20186;-67
2022/03/26 02:01:19;;;;;;;33.57;25.60;;;4.30;16.20;;;;;;5032584;28;20245;-68
2022/03/26 02:03:45;;;;;;;33.77;25.60;;;4.20;16.90;;;;;;5032502;28;20183;-66
2022/03/26 02:06:11;;;;;;;29.17;25.47;;;4.10;17.20;;;;;;5032327;28;20189;-67
2022/03/26 02:08:36;;;;;;;28.17;25.47;;;4.20;17.10;;;;;;5032078;28;20282;-67
2022/03/26 02:11:03;;;;;;;31.87;25.53;;;4.10;16.80;;;;;;5032397;28;20258;-67
2022/03/26 02:13:51;;;;;;;26.52;23.67;;;4.10;16.80;;;;;;5032383;28;20417;-67
2022/03/26 02:16:17;;;;;;;28.50;23.00;;;4.10;16.80;;;;;;5031728;28;20169;-66
2022/03/26 02:18:43;;;;;;;32.92;27.20;;;4.10;16.80;;;;;;5031919;28;20177;-67
2022/03/26 02:21:09;;;;;;;33.77;25.93;;;4.10;16.80;;;;;;5032371;28;20543;-68
2022/03/26 02:23:35;;;;;;;29.05;26.10;;;4.10;16.90;;;;;;5032140;28;20183;-67
2022/03/26 02:26:00;;;;;;;28.73;25.67;;;4.10;17.10;;;;;;5031025;28;20179;-67
2022/03/26 02:28:26;;;;;;;27.73;24.13;;;4.00;17.20;;;;;;5031736;28;20754;-68
2022/03/26 02:30:52;;;;;;;27.67;24.67;;;4.00;17.50;;;;;;5032075;28;20221;-67
2022/03/26 02:33:18;;;;;;;32.00;26.30;;;3.90;17.30;;;;;;5032009;28;20167;-67
2022/03/26 02:35:43;;;;;;;32.00;25.40;;;3.90;17.40;;;;;;5047417;28;20189;-68
2022/03/26 02:38:09;;;;;;;32.37;24.63;;;3.90;17.50;;;;;;5031731;28;20211;-68
2022/03/26 02:40:35;;;;;;;32.92;25.48;;;3.90;17.20;;;;;;5047333;28;20659;-68
2022/03/26 02:43:02;;;;;;;29.43;22.57;;;3.90;17.30;;;;;;5030707;28;20273;-68
2022/03/26 02:45:29;;;;;;;28.20;25.13;;;3.90;17.50;;;;;;5031978;28;20171;-67
2022/03/26 02:47:55;;;;;;;26.60;23.20;;;3.80;17.50;;;;;;5031395;28;20279;-67
2022/03/26 02:50:21;;;;;;;31.27;25.35;;;3.80;18.10;;;;;;5031896;28;20588;-69
2022/03/26 02:52:48;;;;;;;30.83;23.57;;;3.60;18.50;;;;;;5032011;28;20262;-67
2022/03/26 02:55:14;;;;;;;28.52;24.73;;;3.60;18.10;;;;;;5031858;28;20252;-68
2022/03/26 02:57:40;;;;;;;25.17;22.63;;;3.60;18.10;;;;;;5031417;28;20191;-68
2022/03/26 03:00:07;;;;;;;27.93;24.73;;;3.50;18.50;;;;;;5031773;28;20422;-69
2022/03/26 03:02:34;;;;;;;26.65;23.70;;;3.60;18.00;;;;;;5031878;28;20416;-67
2022/03/26 03:05:00;;;;;;;30.95;24.98;;;3.60;18.30;;;;;;5031795;28;20640;-69
2022/03/26 03:07:25;;;;;;;27.02;23.80;;;3.60;18.20;;;;;;5031702;28;20626;-68
2022/03/26 03:09:51;;;;;;;30.57;25.00;;;3.60;18.10;;;;;;5031652;28;20285;-67
2022/03/26 03:12:17;;;;;;;27.90;24.90;;;3.60;18.40;;;;;;5031753;28;20175;-70
2022/03/26 03:14:43;;;;;;;33.00;24.63;;;3.50;18.40;;;;;;5031583;28;20243;-70
2022/03/26 03:17:09;;;;;;;34.72;23.90;;;3.50;18.40;;;;;;5046586;28;20626;-71
2022/03/26 03:19:35;;;;;;;31.42;25.80;;;3.40;18.70;;;;;;5031561;28;20262;-69
2022/03/26 03:22:02;;;;;;;36.43;25.70;;;3.40;18.60;;;;;;5047143;28;20274;-70
2022/03/26 03:24:27;;;;;;;31.65;24.08;;;3.40;18.50;;;;;;5031568;28;20178;-71
2022/03/26 03:26:53;;;;;;;32.53;25.47;;;3.40;18.80;;;;;;5047331;28;20203;-70
2022/03/26 03:29:19;;;;;;;32.33;26.33;;;3.30;18.70;;;;;;5035270;28;20199;-71
2022/03/26 03:31:47;;;;;;;32.07;26.17;;;3.30;19.10;;;;;;5035414;28;20173;-70
2022/03/26 03:34:13;;;;;;;27.20;22.75;;;3.30;19.10;;;;;;5035238;28;20213;-70
2022/03/26 03:36:39;;;;;;;30.50;23.55;;;3.30;19.10;;;;;;5034913;28;20196;-71
2022/03/26 03:39:05;;;;;;;28.10;25.10;;;3.30;19.10;;;;;;5035319;28;20247;-70
2022/03/26 03:41:30;;;;;;;29.37;25.97;;;3.20;19.00;;;;;;5035249;28;20818;-70
2022/03/26 03:43:56;;;;;;;33.20;25.23;;;3.20;19.00;;;;;;5035114;28;20206;-70
2022/03/26 03:46:22;;;;;;;32.53;25.37;;;3.10;18.90;;;;;;5034929;28;20654;-73
2022/03/26 03:48:47;;;;;;;37.53;26.47;;;3.10;18.90;;;;;;5035014;28;20205;-70
2022/03/26 03:51:13;;;;;;;26.47;23.13;;;3.00;19.30;;;;;;5035022;28;20425;-71
2022/03/26 03:53:38;;;;;;;29.07;26.07;;;3.10;19.50;;;;;;5050354;28;20185;-72
2022/03/26 03:56:04;;;;;;;36.70;25.40;;;3.10;19.10;;;;;;5035301;28;20507;-70
2022/03/26 03:58:30;;;;;;;31.30;23.43;;;3.10;19.10;;;;;;5035156;28;20237;-71
2022/03/26 04:00:56;;;;;;;32.43;26.33;;;3.00;19.90;;;;;;5034824;28;20185;-70
2022/03/26 04:03:22;;;;;;;30.00;24.77;;;3.00;19.80;;;;;;5050294;28;20186;-70
2022/03/26 04:05:48;;;;;;;29.67;25.20;;;2.90;20.90;;;;;;5034688;28;20190;-71
2022/03/26 04:08:16;;;;;;;41.80;24.90;;;2.90;20.30;;;;;;5034459;28;20207;-71
2022/03/26 04:10:41;;;;;;;26.95;24.15;;;2.90;20.40;;;;;;5049939;28;20182;-70
2022/03/26 04:13:07;;;;;;;32.50;25.13;;;2.90;20.50;;;;;;5034601;28;20173;-72
2022/03/26 04:15:32;;;;;;;33.50;23.33;;;2.80;20.40;;;;;;5034570;28;20589;-71
2022/03/26 04:17:58;;;;;;;32.87;25.33;;;2.90;20.30;;;;;;5032853;28;20224;-70
2022/03/26 04:20:23;;;;;;;35.03;25.83;;;3.00;19.90;;;;;;5034510;28;20173;-70
2022/03/26 04:22:50;;;;;;;37.97;24.07;;;3.00;20.20;;;;;;5049908;28;20265;-70
2022/03/26 04:25:15;;;;;;;32.90;23.92;;;3.00;19.80;;;;;;5034319;28;20173;-71
2022/03/26 04:27:46;;;;;;;27.30;22.63;;;2.90;19.90;;;;;;5033962;28;20191;-72
2022/03/26 04:30:12;;;;;;;29.08;25.10;;;3.00;20.10;;;;;;5034338;28;20202;-70
2022/03/26 04:32:38;;;;;;;34.45;26.23;;;3.00;19.80;;;;;;5049780;28;20312;-71
2022/03/26 04:35:04;;;;;;;38.60;24.67;;;3.00;19.60;;;;;;5034135;28;20273;-72
2022/03/26 04:37:29;;;;;;;37.10;24.60;;;2.90;19.80;;;;;;5033623;28;20195;-72
2022/03/26 04:39:55;;;;;;;25.40;21.43;;;2.90;20.10;;;;;;5028383;28;20573;-70
2022/03/26 04:42:21;;;;;;;31.93;26.50;;;2.80;19.70;;;;;;5013878;28;20320;-71
2022/03/26 04:44:46;;;;;;;29.63;25.80;;;2.80;20.40;;;;;;5014380;28;20667;-71
2022/03/26 04:47:12;;;;;;;32.60;26.30;;;2.70;20.70;;;;;;5013848;28;20203;-72
2022/03/26 04:49:37;;;;;;;33.87;26.60;;;2.80;20.40;;;;;;5014178;28;20228;-70
2022/03/26 04:52:03;;;;;;;36.43;25.30;;;2.70;20.60;;;;;;5014077;28;20185;-70
2022/03/26 04:54:29;;;;;;;30.50;24.60;;;2.70;20.50;;;;;;5014107;28;20178;-70
2022/03/26 04:56:54;;;;;;;37.10;23.77;;;2.50;20.80;;;;;;5013870;28;20989;-71
2022/03/26 04:59:20;;;;;;;30.63;23.70;;;2.50;21.60;;;;;;5013972;28;20194;-70
2022/03/26 05:01:47;;;;;;;27.90;24.10;;;2.60;21.00;;;;;;5013969;28;20246;-71
2022/03/26 05:04:13;;;;;;;33.65;26.13;;;2.50;21.60;;;;;;5013907;28;20169;-72
2022/03/26 05:06:39;;;;;;;30.63;23.13;;;2.50;21.60;;;;;;5013678;28;20655;-71
2022/03/26 05:09:04;;;;;;;34.83;25.93;;;2.50;21.60;;;;;;5013811;28;20251;-71
2022/03/26 05:11:30;;;;;;;34.20;25.47;;;2.60;21.40;;;;;;5013919;28;20283;-71
2022/03/26 05:13:57;;;;;;;27.57;24.07;;;2.60;21.30;;;;;;5013913;28;20250;-70
2022/03/26 05:16:22;;;;;;;39.53;28.85;;;2.60;21.30;;;;;;5013525;28;20178;-71
2022/03/26 05:18:48;;;;;;;30.80;23.57;;;2.60;21.00;;;;;;5014102;28;20185;-70
2022/03/26 05:21:14;;;;;;;32.27;28.37;;;2.60;21.20;;;;;;5013971;28;20186;-70
2022/03/26 05:23:40;;;;;;;33.50;24.37;;;2.60;21.10;;;;;;5012279;28;20640;-70
2022/03/26 05:26:06;;;;;;;31.00;23.17;;;2.50;21.60;;;;;;5013374;28;20313;-70
2022/03/26 05:28:31;;;;;;;39.00;26.57;;;2.60;21.60;;;;;;5028381;28;20308;-70
2022/03/26 05:30:57;;;;;;;33.60;27.40;;;2.60;21.40;;;;;;5012297;28;20184;-69
2022/03/26 05:33:22;;;;;;;37.50;26.73;;;2.60;21.40;;;;;;5013483;28;20249;-70
2022/03/26 05:35:48;;;;;;;30.40;24.77;;;2.50;22.10;;;;;;5011993;28;20653;-70
2022/03/26 05:38:13;;;;;;;29.43;23.13;;;2.60;22.00;;;;;;5028109;28;20204;-70
2022/03/26 05:40:40;;;;;;;30.20;24.60;;;2.60;21.80;;;;;;5013149;28;20184;-69
2022/03/26 05:43:06;;;;;;;26.10;21.13;;;2.70;21.70;;;;;;5013174;28;20656;-70
2022/03/26 05:45:31;;;;;;;29.50;25.63;;;2.80;21.70;;;;;;5013147;28;20187;-70
2022/03/26 05:48:01;;;;;;;30.57;24.47;;;2.80;21.50;;;;;;5012845;28;20254;-69
2022/03/26 05:50:27;;;;;;;28.90;23.35;;;3.00;21.20;;;;;;5012511;28;20177;-70
2022/03/26 05:52:53;;;;;;;28.20;22.17;;;3.10;21.20;;;;;;5013071;28;20637;-70
2022/03/26 05:55:18;;;;;;;25.87;22.33;;;3.10;21.10;;;;;;5014130;28;20837;-68
2022/03/26 05:57:44;;;;;;;31.93;23.27;;;3.20;21.10;;;;;;5013056;28;20210;-69
2022/03/26 06:00:11;;;;;;;33.35;26.48;;;3.50;21.20;;;;;;5013354;28;20179;-68
2022/03/26 06:02:36;;;;;;;28.15;24.52;;;3.90;20.30;;;;;;5013106;28;20538;-69
2022/03/26 06:05:04;;;;;;;28.50;22.47;;;4.30;19.70;;;;;;5012928;28;20171;-69
2022/03/26 06:07:29;;;;;;;31.75;26.25;;;4.80;20.00;;;;;;5012449;28;20462;-69
2022/03/26 06:09:55;;;;;;;26.37;23.50;;;5.30;18.90;;;;;;5012391;28;20618;-69
2022/03/26 06:12:21;;;;;;;30.03;24.37;;;5.80;18.50;;;;;;5011339;28;20510;-69
2022/03/26 06:14:46;;;;;;;30.43;25.17;;;6.40;17.10;;;;;;5013089;28;20303;-69
2022/03/26 06:17:12;;;;;;;28.30;25.27;;;6.90;16.70;;;;;;5012096;28;20218;-68
2022/03/26 06:19:38;;;;;;;31.23;28.13;;;7.40;15.10;;;;;;5027881;28;20210;-70
2022/03/26 06:22:04;;;;;;;32.70;28.60;;;7.90;14.40;;;;;;5027691;28;20274;-70
2022/03/26 06:24:30;;;;;;;28.80;26.07;;;8.40;12.70;;;;;;5012632;28;20510;-70
2022/03/26 06:26:55;;;;;;;31.70;28.40;;;8.90;11.50;;;;;;5012213;28;20436;-70
2022/03/26 06:29:21;;;;;;;29.73;27.03;;;9.30;10.60;;;;;;5011296;28;20235;-69
2022/03/26 06:31:47;;;;;;;28.47;25.77;;;9.70;10.30;;;;;;5012732;28;20208;-69
2022/03/26 06:34:13;;;;;;;32.93;29.70;;;10.10;8.70;;;;;;5015612;28;20172;-69
2022/03/26 06:36:39;;;;;;;32.60;29.67;;;10.40;7.50;;;;;;5031904;28;20437;-69
2022/03/26 06:39:09;;;;;;;34.83;31.70;;;10.70;6.90;;;;;;5032299;28;20220;-69
2022/03/26 06:41:38;;;;;;;33.63;30.20;;;10.90;7.20;;;;;;5047761;28;20459;-67
2022/03/26 06:44:08;;;;;;;37.97;34.23;;;11.40;6.70;;;;;;5032182;28;20423;-70
2022/03/26 06:46:35;;;;;;;32.40;29.50;;;10.60;5.60;;;;;;5032123;28;20442;-70
2022/03/26 06:49:01;;;;;;;32.63;29.83;;;10.80;6.30;;;;;;5031912;28;20453;-69
2022/03/26 06:51:26;;;;;;;34.80;31.30;;;11.00;5.70;;;;;;5031965;28;20417;-70
2022/03/26 06:53:52;;;;;;;32.90;30.20;;;10.90;6.20;;;;;;5031867;28;20186;-70
2022/03/26 06:56:17;;;;;;;31.10;28.20;;;10.90;5.30;;;;;;5031778;28;20641;-69
2022/03/26 06:58:44;;;;;;;38.13;33.43;;;9.80;6.20;;;;;;5030424;28;20191;-68
2022/03/26 07:01:10;;;;;;;32.97;30.23;;;9.00;9.50;;;;;;5032075;28;20180;-70
2022/03/26 07:03:36;;;;;;;32.83;30.10;;;9.80;8.90;;;;;;5052134;28;20435;-69
2022/03/26 07:06:01;;;;;;;36.37;32.80;;;10.50;6.50;;;;;;5035909;28;20419;-69
2022/03/26 07:08:27;;;;;;;35.23;32.10;;;10.80;5.80;;;;;;5034118;28;20222;-69
2022/03/26 07:10:52;;;;;;;36.27;32.70;;;11.10;6.00;;;;;;5036052;28;20179;-70
2022/03/26 07:13:18;;;;;;;39.43;32.37;;;11.30;5.00;;;;;;5035711;28;20238;-69
2022/03/26 07:15:44;;;;;;;36.57;33.13;;;11.40;4.50;;;;;;5050250;28;20188;-67
2022/03/26 07:18:09;;;;;;;36.37;32.80;;;11.20;4.70;;;;;;5016547;28;20279;-69
2022/03/26 07:20:35;;;;;;;31.37;28.47;;;10.60;5.00;;;;;;5021642;28;20336;-69
2022/03/26 07:23:01;;;;;;;32.67;29.43;;;10.00;5.20;;;;;;5035999;28;20217;-70
2022/03/26 07:25:26;;;;;;;31.13;27.90;;;10.10;6.00;;;;;;5034775;28;20202;-69
2022/03/26 07:27:52;;;;;;;31.10;28.23;;;10.10;5.90;;;;;;5035412;28;20445;-68
2022/03/26 07:30:18;;;;;;;34.20;30.60;;;10.00;5.80;;;;;;5035292;28;20662;-67
2022/03/26 07:32:44;;;;;;;33.57;30.20;;;9.90;6.80;;;;;;5028743;28;20176;-67
2022/03/26 07:35:09;;;;;;;29.33;26.53;;;9.90;7.10;;;;;;5026168;28;20430;-68
2022/03/26 07:37:35;;;;;;;35.03;29.67;;;10.00;6.60;;;;;;5050226;28;20197;-68
2022/03/26 07:40:01;;;;;;;33.63;30.63;;;10.00;6.60;;;;;;5035264;28;20928;-67
2022/03/26 07:42:27;;;;;;;31.27;28.00;;;10.10;6.80;;;;;;5035193;28;20771;-67
2022/03/26 07:44:53;;;;;;;31.37;28.20;;;10.10;6.40;;;;;;5050204;28;20199;-67
2022/03/26 07:47:19;;;;;;;37.10;33.10;;;10.20;6.70;;;;;;5031271;28;20974;-69
2022/03/26 07:49:45;;;;;;;32.20;29.10;;;10.30;6.70;;;;;;5015133;28;20462;-68
2022/03/26 07:52:10;;;;;;;36.10;27.00;;;10.40;6.90;;;;;;5025123;28;20176;-68
2022/03/26 07:54:36;;;;;;;31.67;28.53;;;10.50;6.60;;;;;;5034875;28;20505;-68
2022/03/26 07:57:02;;;;;;;33.20;29.03;;;10.70;6.00;;;;;;5034808;28;20625;-67
2022/03/26 07:59:27;;;;;;;31.07;27.90;;;10.80;5.80;;;;;;5034901;28;20581;-67
2022/03/26 08:01:53;;;;;;;33.13;29.87;;;10.60;5.70;;;;;;5034972;28;20183;-67
2022/03/26 08:04:18;;;;;;;31.37;28.27;;;10.80;5.80;;;;;;5025121;28;20640;-67
2022/03/26 08:06:44;;;;;;;30.13;27.00;;;11.10;6.00;;;;;;5014676;28;20245;-67
2022/03/26 08:09:09;;;;;;;33.30;30.20;;;11.40;5.70;;;;;;5015332;28;20216;-67
2022/03/26 08:11:35;;;;;;;31.07;27.77;;;11.50;5.30;;;;;;5015124;28;20262;-67
2022/03/26 08:14:00;;;;;;;31.00;27.60;;;11.20;4.80;;;;;;5021094;28;20209;-67
2022/03/26 08:16:26;;;;;;;29.70;26.77;;;11.30;5.10;;;;;;5034339;28;20584;-67
2022/03/26 08:18:51;;;;;;;32.13;29.20;;;11.50;4.80;;;;;;5034793;28;20649;-67
2022/03/26 08:21:17;;;;;;;32.87;29.67;;;11.70;5.00;;;;;;5033001;28;20652;-67
2022/03/26 08:23:43;;;;;;;34.40;31.00;;;11.90;3.80;;;;;;5034093;28;20190;-67
2022/03/26 08:26:29;;;;;;;31.63;28.40;;;12.10;4.00;;;;;;5033919;28;20416;-67
2022/03/26 08:28:56;;;;;;;32.67;29.47;;;12.30;4.60;;;;;;5011606;28;20870;-68
2022/03/26 08:31:24;;;;;;;33.47;28.00;;;12.40;3.80;;;;;;5010636;28;20919;-68
2022/03/26 08:33:49;;;;;;;35.90;31.87;;;12.60;3.30;;;;;;5022309;28;20751;-68
2022/03/26 08:36:16;;;;;;;36.70;30.87;;;12.70;3.50;;;;;;5029598;28;20979;-68
2022/03/26 08:38:46;;;;;;;32.67;29.47;;;12.70;2.60;;;;;;5030527;28;20660;-67
2022/03/26 08:41:13;;;;;;;31.70;28.73;;;12.60;3.10;;;;;;5030606;28;20887;-68
2022/03/26 08:43:39;;;;;;;32.90;29.47;;;12.70;3.70;;;;;;5030217;28;20433;-68
2022/03/26 08:46:05;;;;;;;33.93;30.50;;;12.30;3.40;;;;;;5028241;28;20416;-69
2022/03/26 08:48:31;;;;;;;33.60;30.10;;;12.40;4.00;;;;;;5028965;28;20210;-68
2022/03/26 08:50:56;;;;;;;34.40;30.23;;;12.20;3.80;;;;;;5030028;28;20320;-68
2022/03/26 08:53:22;;;;;;;36.53;28.87;;;12.00;4.70;;;;;;5028475;28;20507;-68
2022/03/26 08:55:47;;;;;;;33.43;28.87;;;12.00;4.70;;;;;;5029285;28;20605;-68
2022/03/26 08:58:14;;;;;;;32.30;28.47;;;12.10;5.40;;;;;;5029547;28;20203;-68
2022/03/26 09:00:40;;;;;;;33.70;30.40;;;12.10;5.50;;;;;;5029639;28;20558;-69
2022/03/26 09:03:05;;;;;;;33.83;30.20;;;12.20;5.40;;;;;;5029094;28;20434;-69
2022/03/26 09:05:31;;;;;;;33.23;29.73;;;12.20;4.90;;;;;;5044916;28;21007;-69
2022/03/26 09:07:57;;;;;;;34.07;30.47;;;12.30;5.40;;;;;;5029553;28;20580;-69
2022/03/26 09:10:22;;;;;;;33.03;28.13;;;12.50;4.90;;;;;;5030239;28;20865;-68
2022/03/26 09:12:48;;;;;;;33.23;29.80;;;12.60;5.00;;;;;;5029667;28;20179;-69
2022/03/26 09:15:14;;;;;;;34.23;31.03;;;12.70;3.90;;;;;;5027998;28;20188;-68
2022/03/26 09:17:40;;;;;;;34.03;30.33;;;12.50;4.90;;;;;;5029915;28;20217;-69
2022/03/26 09:20:07;;;;;;;32.90;30.00;;;12.70;5.10;;;;;;5028053;28;20527;-69
2022/03/26 09:22:33;;;;;;;33.60;30.20;;;12.70;4.70;;;;;;5029584;28;20587;-69
2022/03/26 09:24:59;;;;;;;35.07;30.37;;;12.60;4.50;;;;;;5027524;28;21005;-69
2022/03/26 09:27:25;;;;;;;34.77;31.27;;;12.20;4.90;;;;;;5032752;28;20472;-70
2022/03/26 09:29:50;;;;;;;32.40;29.30;;;12.30;5.30;;;;;;5032992;28;21003;-71
2022/03/26 09:32:16;;;;;;;36.93;30.93;;;12.50;5.20;;;;;;5033428;28;20606;-71
2022/03/26 09:34:41;;;;;;;30.00;27.23;;;12.60;5.20;;;;;;5033017;28;20274;-70
2022/03/26 09:37:08;;;;;;;35.13;31.03;;;12.50;5.20;;;;;;5032965;28;20249;-70
2022/03/26 09:39:33;;;;;;;31.03;27.93;;;12.20;5.70;;;;;;5048360;28;20183;-70
2022/03/26 09:41:59;;;;;;;33.90;30.20;;;12.40;5.20;;;;;;5033022;28;20424;-71
2022/03/26 09:44:25;;;;;;;31.13;28.13;;;12.60;4.60;;;;;;5048353;28;20521;-69
2022/03/26 09:46:50;;;;;;;35.03;31.33;;;12.70;4.50;;;;;;5032740;28;20205;-67
2022/03/26 09:49:16;;;;;;;33.90;30.40;;;12.80;4.70;;;;;;5045172;28;20461;-68
2022/03/26 09:51:42;;;;;;;34.70;31.07;;;12.80;4.50;;;;;;5031711;28;20245;-68
2022/03/26 09:54:12;;;;;;;32.60;29.60;;;12.90;4.20;;;;;;5032764;28;20406;-68
2022/03/26 09:56:38;;;;;;;33.30;29.97;;;13.00;4.30;;;;;;5032368;28;20476;-68
2022/03/26 09:59:04;;;;;;;32.30;29.00;;;13.20;4.10;;;;;;5032564;28;20446;-67
2022/03/26 10:01:29;;;;;;;35.23;31.47;;;13.40;3.50;;;;;;5030119;28;20842;-68
2022/03/26 10:04:12;;;;;;;32.10;28.73;;;13.50;3.10;;;;;;5030009;28;20186;-68
2022/03/26 10:06:50;;;;;;;34.70;29.23;;;13.70;3.20;;;;;;5029908;28;20195;-68
2022/03/26 10:09:39;;;;;;;34.83;30.40;;;13.90;3.00;;;;;;5032318;28;20445;-68
2022/03/26 10:12:11;;;;;;;35.77;31.80;;;14.00;3.40;;;;;;5032237;28;20421;-68
2022/03/26 10:14:53;;;;;;;34.27;30.67;;;14.20;2.70;;;;;;5032497;28;20407;-68
2022/03/26 10:17:30;;;;;;;35.30;31.73;;;14.30;2.10;;;;;;5031914;28;20438;-68
2022/03/26 10:19:59;;;;;;;36.73;32.87;;;14.40;1.90;;;;;;5031920;28;20537;-68
2022/03/26 10:22:37;;;;;;;35.20;31.40;;;14.60;1.60;;;;;;5032115;28;20763;-68
2022/03/26 10:25:16;;;;;;;37.57;29.40;;;14.70;1.00;;;;;;5032175;28;20429;-68
2022/03/26 10:27:50;;;;;;;33.07;30.23;;;14.80;1.00;;;;;;5030566;28;20793;-68
2022/03/26 10:32:38;;;;;;;35.53;30.77;;;14.80;1.00;;;;;;5031104;28;20472;-69
2022/03/26 10:33:20;;;;;;;32.30;28.40;;;14.90;1.00;;;;;;5031313;28;20465;-68
2022/03/26 10:35:53;;;;;;;36.53;32.30;;;15.10;1.00;;;;;;5027468;28;20958;-69
2022/03/26 10:38:19;;;;;;;34.37;30.67;;;15.20;1.10;;;;;;5031333;28;20438;-68
2022/03/26 10:40:44;;;;;;;34.43;30.80;;;15.40;1.00;;;;;;5031961;28;20416;-68
2022/03/26 10:43:12;;;;;;;31.83;28.63;;;15.50;1.00;;;;;;5032201;28;20183;-68
2022/03/26 10:45:52;;;;;;;31.33;28.50;;;15.50;1.00;;;;;;5031794;28;20268;-68
2022/03/26 10:48:26;;;;;;;37.43;33.67;;;15.50;1.00;;;;;;5031642;28;20462;-69
2022/03/26 10:50:56;;;;;;;34.60;31.30;;;15.60;1.00;;;;;;5032064;28;20412;-68
2022/03/26 10:53:22;;;;;;;32.27;28.90;;;15.70;1.00;;;;;;5032167;28;20898;-68
2022/03/26 10:55:48;;;;;;;32.33;28.80;;;15.70;1.00;;;;;;5032439;28;20532;-68
2022/03/26 10:58:15;;;;;;;31.87;28.90;;;15.80;1.00;;;;;;5031664;28;20255;-68
2022/03/26 11:00:42;;;;;;;32.13;29.00;;;16.00;1.00;;;;;;5030564;28;20473;-69
2022/03/26 11:03:08;;;;;;;33.17;29.70;;;16.20;1.00;;;;;;5031785;28;20421;-69
2022/03/26 11:05:34;;;;;;;36.63;32.20;;;16.40;1.00;;;;;;5030497;28;20429;-68
2022/03/26 11:08:01;;;;;;;32.67;28.60;;;16.40;1.00;;;;;;5030083;28;20207;-68
2022/03/26 11:10:30;;;;;;;34.03;30.50;;;16.50;1.00;;;;;;5031650;28;20471;-69
2022/03/26 11:12:58;;;;;;;30.53;28.03;;;16.50;1.00;;;;;;5031722;28;20417;-68
2022/03/26 11:15:28;;;;;;;29.87;26.97;;;16.70;1.00;;;;;;5030558;28;20679;-69
2022/03/26 11:18:00;;;;;;;30.33;27.53;;;16.90;1.00;;;;;;5028874;28;20497;-69
2022/03/26 11:20:47;;;;;;;28.90;26.53;;;16.90;1.00;;;;;;5010776;28;20472;-68
2022/03/26 11:23:36;;;;;;;30.30;27.73;;;16.80;1.00;;;;;;5019337;28;20442;-69
2022/03/26 11:26:31;;;;;;;31.20;28.20;;;17.10;1.00;;;;;;5018381;28;20422;-69
2022/03/26 11:29:27;;;;;;;30.53;27.33;;;17.30;1.00;;;;;;5027013;28;20478;-69
2022/03/26 11:32:06;;;;;;;28.83;26.20;;;17.50;1.00;;;;;;5023554;28;20431;-69
2022/03/26 11:34:36;;;;;;;30.07;27.27;;;17.60;1.00;;;;;;5031340;28;20449;-69
2022/03/26 11:37:12;;;;;;;30.23;27.40;;;17.60;1.00;;;;;;5025091;28;20458;-69
2022/03/26 11:39:48;;;;;;;31.63;28.73;;;17.70;1.00;;;;;;5011520;28;20423;-69
2022/03/26 11:42:14;;;;;;;29.23;26.57;;;17.70;1.00;;;;;;5028598;28;20429;-69
2022/03/26 11:44:44;;;;;;;26.57;24.17;;;17.50;1.00;;;;;;5014734;28;20430;-68
2022/03/26 11:53:33;;;;;;;31.83;28.80;;;17.90;1.00;;;;;;5035141;28;20906;-67
2022/03/26 11:56:01;;;;;;;29.73;27.10;;;18.10;1.00;;;;;;5025411;28;20425;-67
2022/03/26 11:58:28;;;;;;;28.27;25.87;;;17.90;1.00;;;;;;5014902;28;20444;-68
2022/03/26 12:01:04;;;;;;;30.00;27.40;;;18.00;1.00;;;;;;5024821;28;20429;-68
2022/03/26 12:03:40;;;;;;;29.87;27.00;;;18.20;1.00;;;;;;5034937;28;20414;-68
2022/03/26 12:08:55;;;;;;;31.30;28.20;;;18.40;1.00;;;;;;5035228;28;20468;-68
2022/03/26 12:11:25;;;;;;;29.57;27.17;;;18.50;1.00;;;;;;5034622;28;20426;-68
2022/03/26 12:14:01;;;;;;;34.80;31.43;;;18.40;1.00;;;;;;5034742;28;20417;-68
2022/03/26 12:17:05;;;;;;;28.57;26.17;;;18.50;1.00;;;;;;5034214;28;20409;-69
2022/03/26 12:19:41;;;;;;;29.80;27.00;;;18.40;1.00;;;;;;4993028;28;20486;-70
2022/03/26 12:22:32;;;;;;;33.07;29.30;;;18.50;1.00;;;;;;4992943;28;20493;-69
2022/03/26 12:25:03;;;;;;;31.53;29.03;;;18.60;1.00;;;;;;5008459;28;20422;-69
2022/03/26 12:27:29;;;;;;;28.07;25.53;;;18.50;1.00;;;;;;5014596;28;20561;-70
2022/03/26 12:29:56;;;;;;;29.80;27.20;;;18.60;1.00;;;;;;5020416;28;20479;-69
2022/03/26 12:32:29;;;;;;;31.23;28.60;;;18.40;1.00;;;;;;5025746;28;20419;-69
2022/03/26 12:35:05;;;;;;;28.63;26.23;;;18.40;1.00;;;;;;5021801;28;20429;-71
2022/03/26 12:37:32;;;;;;;31.97;28.87;;;18.40;1.00;;;;;;5033687;28;20430;-71
2022/03/26 12:39:57;;;;;;;28.13;25.50;;;18.40;1.00;;;;;;5034057;28;20432;-70
2022/03/26 12:42:24;;;;;;;28.67;25.83;;;18.20;1.00;;;;;;5034016;28;20422;-70
2022/03/26 12:44:51;;;;;;;31.07;28.43;;;18.30;1.00;;;;;;5034065;28;20182;-71
2022/03/26 12:47:19;;;;;;;27.30;24.60;;;18.40;1.00;;;;;;5032324;28;20442;-71
2022/03/26 12:49:47;;;;;;;28.03;25.63;;;18.30;1.00;;;;;;5033559;28;20465;-71